PWSweather.com
Personal Weather Stations
Station Observations
NYERIN
South Erin, Erin, NY 14838-9545

South ErinErin, NY 14838-9545

Lat: 42.150605, Lon: -76.654038

Elevation: 1663

Station Type: Davis VP Pro II

http://southerin-ny.org/wx.php

Latest ConditionsUpdated 6:12:01 AM EDT Friday, Aug 26, 2016
Currently Today's Max Today's Min Today's Average
Temperature 70.3°F21.3°C 72.8°F22.7°C 70.3°F21.3°C 71.3°F21.8°C
Dew Point 70.3°F21.3°C 72.8°F22.7°C 70.3°F21.3°C 71.3°F21.8°C
Winds 3.2 mph W5.1 kmh W 5.2 mph WSW8.4 kmh WSW - 1.5 mph 2.4 kmh
Wind Gusts 5.0 mph8.0 kmh 9.0 mph14.5 kmh - -
Humidity 100% 100% 100% 100%
Pressure 29.97 in1014.9 mb 29.97 in1014.9 mb 29.89 in1012.2 mb -
Precipitation - 0.01 in0.3 mm - -
Hour Temp Dew Point Humidity Winds Wind Gusts Pressure Precip Precip Rate Daily Precip Total
06:12 AM 70.3°F21.3°C 70.3°F21.3°C 100% 3.2 mph W5.1 kmh W 5.0 mph8.0 kmh 29.97 in1014.9 mb - 0.00 in0.0 mm 0.01 in0.3 mm
06:02 AM 70.3°F21.3°C 70.3°F21.3°C 100% 4.6 mph W7.4 kmh W 8.0 mph12.9 kmh 29.96 in1014.6 mb - 0.00 in0.0 mm 0.01 in0.3 mm
05:52 AM 70.3°F21.3°C 70.3°F21.3°C 100% 3.0 mph W4.8 kmh W 5.0 mph8.0 kmh 29.95 in1014.2 mb - 0.00 in0.0 mm 0.01 in0.3 mm
05:42 AM 70.3°F21.3°C 70.3°F21.3°C 100% 0.6 mph W1.0 kmh W -- 29.95 in1014.2 mb - 0.00 in0.0 mm 0.01 in0.3 mm
05:32 AM 70.3°F21.3°C 70.3°F21.3°C 100% 2.8 mph WSW4.5 kmh WSW 4.0 mph6.4 kmh 29.94 in1013.9 mb - 0.00 in0.0 mm 0.01 in0.3 mm
05:22 AM 70.4°F21.3°C 70.4°F21.3°C 100% 2.9 mph WSW4.7 kmh WSW 8.0 mph12.9 kmh 29.94 in1013.9 mb - 0.00 in0.0 mm 0.01 in0.3 mm
05:12 AM 70.4°F21.3°C 70.4°F21.3°C 100% 5.2 mph WSW8.4 kmh WSW 5.0 mph8.0 kmh 29.93 in1013.5 mb - 0.00 in0.0 mm 0.01 in0.3 mm
05:02 AM 70.4°F21.3°C 70.4°F21.3°C 100% 3.6 mph W5.8 kmh W 5.0 mph8.0 kmh 29.93 in1013.5 mb - 0.00 in0.0 mm 0.01 in0.3 mm
04:52 AM 70.4°F21.3°C 70.4°F21.3°C 100% 2.9 mph W4.7 kmh W 9.0 mph14.5 kmh 29.93 in1013.5 mb - 0.00 in0.0 mm 0.01 in0.3 mm
04:42 AM 70.4°F21.3°C 70.4°F21.3°C 100% 2.0 mph WSW3.2 kmh WSW 6.0 mph9.7 kmh 29.92 in1013.2 mb - 0.00 in0.0 mm 0.01 in0.3 mm
04:32 AM 70.3°F21.3°C 70.3°F21.3°C 100% 2.5 mph WSW4.0 kmh WSW 8.0 mph12.9 kmh 29.92 in1013.2 mb - 0.00 in0.0 mm 0.01 in0.3 mm
04:22 AM 70.4°F21.3°C 70.4°F21.3°C 100% 3.9 mph WSW6.3 kmh WSW 5.0 mph8.0 kmh 29.92 in1013.2 mb - 0.00 in0.0 mm 0.01 in0.3 mm
04:12 AM 70.4°F21.3°C 70.4°F21.3°C 100% 2.7 mph WSW4.3 kmh WSW 3.0 mph4.8 kmh 29.92 in1013.2 mb - 0.00 in0.0 mm 0.01 in0.3 mm
04:02 AM 70.4°F21.3°C 70.4°F21.3°C 100% 1.1 mph W1.8 kmh W 1.0 mph1.6 kmh 29.91 in1012.9 mb - 0.00 in0.0 mm 0.01 in0.3 mm
03:52 AM 70.4°F21.3°C 70.4°F21.3°C 100% 1.7 mph W2.7 kmh W 6.0 mph9.7 kmh 29.91 in1012.9 mb - 0.00 in0.0 mm 0.01 in0.3 mm
03:42 AM 70.6°F21.4°C 70.6°F21.4°C 100% 0.6 mph W1.0 kmh W 1.0 mph1.6 kmh 29.91 in1012.9 mb - 0.00 in0.0 mm 0.01 in0.3 mm
03:32 AM 70.8°F21.6°C 70.8°F21.6°C 100% 2.7 mph W4.3 kmh W 4.0 mph6.4 kmh 29.91 in1012.9 mb - 0.00 in0.0 mm 0.01 in0.3 mm
03:22 AM 70.8°F21.6°C 70.8°F21.6°C 100% Calm Calm -- 29.91 in1012.9 mb - 0.00 in0.0 mm 0.01 in0.3 mm
03:12 AM 70.8°F21.6°C 70.8°F21.6°C 100% 0.2 mph W0.3 kmh W 1.0 mph1.6 kmh 29.91 in1012.9 mb - 0.00 in0.0 mm 0.01 in0.3 mm
03:02 AM 70.9°F21.6°C 70.9°F21.6°C 100% 0.1 mph WSW0.2 kmh WSW -- 29.91 in1012.9 mb - 0.00 in0.0 mm 0.01 in0.3 mm
02:52 AM 70.9°F21.6°C 70.9°F21.6°C 100% 2.2 mph WSW3.5 kmh WSW 4.0 mph6.4 kmh 29.91 in1012.9 mb - 0.00 in0.0 mm 0.01 in0.3 mm
02:42 AM 71.1°F21.7°C 71.1°F21.7°C 100% 0.7 mph WSW1.1 kmh WSW 2.0 mph3.2 kmh 29.91 in1012.9 mb - 0.00 in0.0 mm 0.01 in0.3 mm
02:32 AM 71.3°F21.8°C 71.3°F21.8°C 100% 0.9 mph WSW1.4 kmh WSW 5.0 mph8.0 kmh 29.90 in1012.5 mb - 0.00 in0.0 mm 0.01 in0.3 mm
02:22 AM 71.4°F21.9°C 71.4°F21.9°C 100% 0.2 mph WSW0.3 kmh WSW 1.0 mph1.6 kmh 29.90 in1012.5 mb - 0.00 in0.0 mm 0.01 in0.3 mm
02:12 AM 71.5°F21.9°C 71.5°F21.9°C 100% Calm Calm 1.0 mph1.6 kmh 29.90 in1012.5 mb - 0.00 in0.0 mm 0.01 in0.3 mm
02:02 AM 71.6°F22.0°C 71.6°F22.0°C 100% 0.5 mph WSW0.8 kmh WSW 3.0 mph4.8 kmh 29.90 in1012.5 mb - 0.00 in0.0 mm 0.01 in0.3 mm
01:52 AM 71.8°F22.1°C 71.8°F22.1°C 100% Calm Calm -- 29.90 in1012.5 mb - 0.00 in0.0 mm 0.01 in0.3 mm
01:42 AM 72.1°F22.3°C 72.1°F22.3°C 100% Calm Calm -- 29.90 in1012.5 mb - 0.00 in0.0 mm 0.01 in0.3 mm
01:32 AM 72.3°F22.4°C 72.3°F22.4°C 100% Calm Calm -- 29.89 in1012.2 mb - 0.00 in0.0 mm 0.01 in0.3 mm
01:22 AM 72.5°F22.5°C 72.5°F22.5°C 100% Calm Calm 1.0 mph1.6 kmh 29.89 in1012.2 mb - 0.00 in0.0 mm 0.01 in0.3 mm
01:12 AM 72.7°F22.6°C 72.7°F22.6°C 100% 0.3 mph WSW0.5 kmh WSW -- 29.90 in1012.5 mb - 0.00 in0.0 mm 0.01 in0.3 mm
01:02 AM 72.7°F22.6°C 72.7°F22.6°C 100% 0.6 mph WSW1.0 kmh WSW 1.0 mph1.6 kmh 29.91 in1012.9 mb - 0.00 in0.0 mm 0.01 in0.3 mm
12:52 AM 72.7°F22.6°C 72.7°F22.6°C 100% 4.1 mph WSW6.6 kmh WSW 9.0 mph14.5 kmh 29.91 in1012.9 mb - 0.01 in0.3 mm 0.01 in0.3 mm
12:42 AM 72.7°F22.6°C 72.7°F22.6°C 100% 1.9 mph SW3.1 kmh SW 5.0 mph8.0 kmh 29.91 in1012.9 mb - 0.00 in0.0 mm 0.00 in0.0 mm
12:32 AM 72.7°F22.6°C 72.7°F22.6°C 100% Calm Calm -- 29.90 in1012.5 mb - 0.00 in0.0 mm 0.00 in0.0 mm
12:22 AM 72.7°F22.6°C 72.7°F22.6°C 100% 0.1 mph SE0.2 kmh SE -- 29.90 in1012.5 mb - 0.00 in0.0 mm 0.00 in0.0 mm
12:12 AM 72.7°F22.6°C 72.7°F22.6°C 100% 0.1 mph SE0.2 kmh SE -- 29.90 in1012.5 mb - 0.00 in0.0 mm 0.00 in0.0 mm
12:02 AM 72.8°F22.7°C 72.8°F22.7°C 100% Calm Calm -- 29.90 in1012.5 mb - 0.00 in0.0 mm 0.00 in0.0 mm